VJT13 GCRR-GCLA
Flight info
| Callsign | VJT13 |
|---|---|
| Flight time | 1h 2m |
| Altitude | 29000 |
| Route | LARYS |
| Aircraft | SF50/L-SDGRWY/L |
Departure
| Time | 2026-04-29 21:59 |
|---|---|
| Airport | César Manrique-Lanzarote Airport (GCRR) |
Arrival
| Time | 2026-04-29 23:02 |
|---|---|
| Airport | La Palma Airport (GCLA) |
| Time | Latitude | Longitude | Altitude | Speed | Heading |
|---|---|---|---|---|---|
| 2026-04-29 21:59 | 29.15584 | -13.48806 | 7577 ft | 263 kts | 295° |
| 2026-04-29 21:59 | 29.16203 | -13.50759 | 7974 ft | 260 kts | 279° |
| 2026-04-29 21:59 | 29.16173 | -13.52789 | 8349 ft | 256 kts | 259° |
| 2026-04-29 22:00 | 29.15793 | -13.54785 | 8729 ft | 254 kts | 255° |
| 2026-04-29 22:00 | 29.15372 | -13.56725 | 9103 ft | 252 kts | 255° |
| 2026-04-29 22:00 | 29.14948 | -13.58669 | 9476 ft | 251 kts | 255° |
| 2026-04-29 22:00 | 29.14530 | -13.60590 | 9852 ft | 249 kts | 255° |
| 2026-04-29 22:01 | 29.14104 | -13.62547 | 10033 ft | 257 kts | 255° |
| 2026-04-29 22:01 | 29.13669 | -13.64541 | 10047 ft | 264 kts | 255° |
| 2026-04-29 22:01 | 29.13222 | -13.66591 | 10047 ft | 263 kts | 255° |
| 2026-04-29 22:01 | 29.12785 | -13.68599 | 10047 ft | 263 kts | 255° |
| 2026-04-29 22:02 | 29.12340 | -13.70636 | 10047 ft | 262 kts | 255° |
| 2026-04-29 22:02 | 29.11900 | -13.72655 | 10046 ft | 262 kts | 255° |
| 2026-04-29 22:02 | 29.11460 | -13.74670 | 10047 ft | 262 kts | 255° |
| 2026-04-29 22:02 | 29.11017 | -13.76692 | 10046 ft | 261 kts | 255° |
| 2026-04-29 22:03 | 29.10574 | -13.78713 | 10046 ft | 261 kts | 255° |
| 2026-04-29 22:03 | 29.10137 | -13.80710 | 10047 ft | 261 kts | 255° |
| 2026-04-29 22:03 | 29.09693 | -13.82732 | 10046 ft | 261 kts | 255° |
| 2026-04-29 22:03 | 29.09251 | -13.84747 | 10046 ft | 261 kts | 255° |
| 2026-04-29 22:04 | 29.08809 | -13.86760 | 10046 ft | 260 kts | 255° |
| 2026-04-29 22:04 | 29.08367 | -13.88772 | 10046 ft | 260 kts | 255° |
| 2026-04-29 22:04 | 29.07931 | -13.90753 | 10047 ft | 260 kts | 255° |
| 2026-04-29 22:04 | 29.07488 | -13.92764 | 10045 ft | 260 kts | 255° |
| 2026-04-29 22:05 | 29.07045 | -13.94776 | 10046 ft | 260 kts | 255° |
| 2026-04-29 22:05 | 29.06603 | -13.96781 | 10046 ft | 260 kts | 255° |
| 2026-04-29 22:05 | 29.05723 | -14.00767 | 10046 ft | 260 kts | 255° |
| 2026-04-29 22:06 | 29.05280 | -14.02769 | 10047 ft | 260 kts | 255° |
| 2026-04-29 22:06 | 29.04836 | -14.04781 | 10048 ft | 260 kts | 255° |
| 2026-04-29 22:06 | 29.04397 | -14.06762 | 10046 ft | 260 kts | 255° |
| 2026-04-29 22:06 | 29.03953 | -14.08766 | 10045 ft | 260 kts | 255° |
| 2026-04-29 22:07 | 29.03509 | -14.10776 | 10045 ft | 260 kts | 255° |
| 2026-04-29 22:07 | 29.03064 | -14.12779 | 10045 ft | 260 kts | 255° |
| 2026-04-29 22:07 | 29.02621 | -14.14774 | 10046 ft | 260 kts | 255° |
| 2026-04-29 22:07 | 29.02176 | -14.16774 | 10045 ft | 260 kts | 255° |
| 2026-04-29 22:08 | 29.01733 | -14.18765 | 10045 ft | 260 kts | 255° |
| 2026-04-29 22:08 | 29.01291 | -14.20754 | 10047 ft | 259 kts | 255° |
| 2026-04-29 22:08 | 29.00844 | -14.22754 | 10045 ft | 259 kts | 255° |
| 2026-04-29 22:08 | 29.00398 | -14.24754 | 10046 ft | 259 kts | 255° |
| 2026-04-29 22:09 | 28.99954 | -14.26748 | 10044 ft | 260 kts | 255° |
| 2026-04-29 22:09 | 28.99508 | -14.28746 | 10045 ft | 260 kts | 255° |
| 2026-04-29 22:09 | 28.99062 | -14.30741 | 10045 ft | 260 kts | 255° |
| 2026-04-29 22:09 | 28.98612 | -14.32743 | 10044 ft | 260 kts | 254° |
| 2026-04-29 22:10 | 28.98151 | -14.34732 | 10046 ft | 259 kts | 254° |
| 2026-04-29 22:10 | 28.97682 | -14.36710 | 10046 ft | 259 kts | 254° |
| 2026-04-29 22:10 | 28.97201 | -14.38702 | 10045 ft | 260 kts | 253° |
| 2026-04-29 22:10 | 28.96707 | -14.40691 | 10045 ft | 259 kts | 253° |
| 2026-04-29 22:11 | 28.96206 | -14.42666 | 10045 ft | 259 kts | 253° |
| 2026-04-29 22:11 | 28.95694 | -14.44639 | 10045 ft | 260 kts | 252° |
| 2026-04-29 22:11 | 28.95165 | -14.46616 | 10044 ft | 259 kts | 252° |
| 2026-04-29 22:11 | 28.94626 | -14.48577 | 10045 ft | 259 kts | 252° |
| 2026-04-29 22:12 | 28.94073 | -14.50542 | 10044 ft | 259 kts | 251° |
| 2026-04-29 22:12 | 28.93510 | -14.52493 | 10046 ft | 259 kts | 251° |
| 2026-04-29 22:12 | 28.92932 | -14.54446 | 10044 ft | 259 kts | 251° |
| 2026-04-29 22:12 | 28.92345 | -14.56385 | 10044 ft | 259 kts | 250° |
| 2026-04-29 22:13 | 28.91746 | -14.58322 | 10044 ft | 259 kts | 250° |
| 2026-04-29 22:13 | 28.91134 | -14.60255 | 10043 ft | 259 kts | 249° |
| 2026-04-29 22:13 | 28.90511 | -14.62184 | 10044 ft | 259 kts | 249° |
| 2026-04-29 22:13 | 28.89878 | -14.64101 | 10045 ft | 258 kts | 249° |
| 2026-04-29 22:14 | 28.89225 | -14.66039 | 10048 ft | 258 kts | 248° |
| 2026-04-29 22:14 | 28.88574 | -14.67931 | 10048 ft | 258 kts | 248° |
| 2026-04-29 22:14 | 28.87900 | -14.69845 | 10049 ft | 259 kts | 247° |
| 2026-04-29 22:14 | 28.87219 | -14.71730 | 10048 ft | 259 kts | 246° |
| 2026-04-29 22:15 | 28.86518 | -14.73628 | 10048 ft | 259 kts | 246° |
| 2026-04-29 22:15 | 28.85813 | -14.75503 | 10049 ft | 259 kts | 246° |
| 2026-04-29 22:15 | 28.85089 | -14.77396 | 10048 ft | 259 kts | 245° |
| 2026-04-29 22:15 | 28.84361 | -14.79268 | 10049 ft | 258 kts | 245° |
| 2026-04-29 22:16 | 28.83623 | -14.81129 | 10048 ft | 259 kts | 245° |
| 2026-04-29 22:16 | 28.82864 | -14.83007 | 10048 ft | 259 kts | 244° |
| 2026-04-29 22:16 | 28.82101 | -14.84859 | 10047 ft | 259 kts | 244° |
| 2026-04-29 22:16 | 28.81325 | -14.86703 | 10048 ft | 259 kts | 244° |
| 2026-04-29 22:17 | 28.80535 | -14.88550 | 10048 ft | 259 kts | 243° |
| 2026-04-29 22:17 | 28.79730 | -14.90396 | 10048 ft | 258 kts | 243° |
| 2026-04-29 22:17 | 28.78908 | -14.92241 | 10048 ft | 259 kts | 242° |
| 2026-04-29 22:17 | 28.78092 | -14.94041 | 10047 ft | 258 kts | 242° |
| 2026-04-29 22:18 | 28.77249 | -14.95869 | 10047 ft | 259 kts | 242° |
| 2026-04-29 22:18 | 28.76411 | -14.97659 | 10048 ft | 258 kts | 241° |
| 2026-04-29 22:18 | 28.75551 | -14.99468 | 10047 ft | 258 kts | 241° |
| 2026-04-29 22:18 | 28.74691 | -15.01250 | 10047 ft | 258 kts | 240° |
| 2026-04-29 22:19 | 28.73808 | -15.03047 | 10047 ft | 258 kts | 240° |
| 2026-04-29 22:19 | 28.72917 | -15.04836 | 10047 ft | 258 kts | 240° |
| 2026-04-29 22:19 | 28.72027 | -15.06589 | 10048 ft | 258 kts | 239° |
| 2026-04-29 22:19 | 28.71113 | -15.08360 | 10048 ft | 258 kts | 239° |
| 2026-04-29 22:20 | 28.70507 | -15.10269 | 10036 ft | 260 kts | 265° |
| 2026-04-29 22:20 | 28.70790 | -15.12282 | 10047 ft | 262 kts | 282° |
| 2026-04-29 22:20 | 28.71266 | -15.14298 | 10047 ft | 262 kts | 283° |
| 2026-04-29 22:20 | 28.71747 | -15.16306 | 10046 ft | 262 kts | 283° |
| 2026-04-29 22:21 | 28.72229 | -15.18317 | 10047 ft | 263 kts | 283° |
| 2026-04-29 22:21 | 28.72705 | -15.20302 | 10046 ft | 263 kts | 283° |
| 2026-04-29 22:21 | 28.73187 | -15.22318 | 10048 ft | 263 kts | 283° |
| 2026-04-29 22:21 | 28.73668 | -15.24329 | 10048 ft | 262 kts | 283° |
| 2026-04-29 22:22 | 28.74149 | -15.26339 | 10046 ft | 263 kts | 283° |
| 2026-04-29 22:22 | 28.74625 | -15.28326 | 10046 ft | 262 kts | 283° |
| 2026-04-29 22:22 | 28.75104 | -15.30346 | 10045 ft | 262 kts | 282° |
| 2026-04-29 22:22 | 28.75324 | -15.32396 | 10046 ft | 260 kts | 269° |
| 2026-04-29 22:23 | 28.75190 | -15.34416 | 10047 ft | 259 kts | 261° |
| 2026-04-29 22:23 | 28.74873 | -15.36439 | 10048 ft | 258 kts | 257° |
| 2026-04-29 22:23 | 28.74476 | -15.38443 | 10045 ft | 258 kts | 256° |
| 2026-04-29 22:23 | 28.74050 | -15.40408 | 10046 ft | 258 kts | 255° |
| 2026-04-29 22:24 | 28.73601 | -15.42398 | 10046 ft | 258 kts | 255° |
| 2026-04-29 22:24 | 28.73146 | -15.44375 | 10046 ft | 258 kts | 255° |
| 2026-04-29 22:24 | 28.72693 | -15.46332 | 10047 ft | 258 kts | 254° |
| 2026-04-29 22:24 | 28.72234 | -15.48309 | 10046 ft | 258 kts | 254° |
| 2026-04-29 22:25 | 28.71777 | -15.50277 | 10046 ft | 258 kts | 255° |
| 2026-04-29 22:25 | 28.71311 | -15.52274 | 10047 ft | 258 kts | 254° |
| 2026-04-29 22:25 | 28.70854 | -15.54237 | 10053 ft | 257 kts | 254° |
| 2026-04-29 22:25 | 28.70396 | -15.56193 | 10054 ft | 257 kts | 254° |
| 2026-04-29 22:26 | 28.69938 | -15.58155 | 10054 ft | 257 kts | 254° |
| 2026-04-29 22:26 | 28.69474 | -15.60139 | 10055 ft | 258 kts | 254° |
| 2026-04-29 22:26 | 28.69013 | -15.62106 | 10054 ft | 258 kts | 254° |
| 2026-04-29 22:26 | 28.68553 | -15.64072 | 10056 ft | 257 kts | 255° |
| 2026-04-29 22:27 | 28.68092 | -15.66035 | 10058 ft | 257 kts | 254° |
| 2026-04-29 22:27 | 28.67632 | -15.67995 | 10060 ft | 257 kts | 254° |
| 2026-04-29 22:27 | 28.67163 | -15.69994 | 10062 ft | 258 kts | 254° |
| 2026-04-29 22:27 | 28.66698 | -15.71973 | 10062 ft | 258 kts | 254° |
| 2026-04-29 22:28 | 28.66235 | -15.73939 | 10049 ft | 258 kts | 254° |
| 2026-04-29 22:28 | 28.65772 | -15.75910 | 10048 ft | 258 kts | 254° |
| 2026-04-29 22:28 | 28.65304 | -15.77897 | 10047 ft | 259 kts | 254° |
| 2026-04-29 22:28 | 28.64834 | -15.79891 | 10048 ft | 258 kts | 254° |
| 2026-04-29 22:29 | 28.64516 | -15.81246 | 10050 ft | 258 kts | 254° |
| 2026-04-29 22:29 | 28.63888 | -15.83906 | 10048 ft | 258 kts | 254° |
| 2026-04-29 22:29 | 28.63414 | -15.85912 | 10048 ft | 258 kts | 254° |
| 2026-04-29 22:29 | 28.62944 | -15.87898 | 10050 ft | 258 kts | 254° |
| 2026-04-29 22:30 | 28.62476 | -15.89888 | 10052 ft | 258 kts | 254° |
| 2026-04-29 22:30 | 28.62004 | -15.91878 | 10054 ft | 258 kts | 254° |
| 2026-04-29 22:30 | 28.61532 | -15.93870 | 10058 ft | 257 kts | 254° |
| 2026-04-29 22:30 | 28.61069 | -15.95829 | 10058 ft | 257 kts | 254° |
| 2026-04-29 22:31 | 28.60599 | -15.97813 | 10061 ft | 257 kts | 254° |
| 2026-04-29 22:31 | 28.60133 | -15.99777 | 10064 ft | 257 kts | 254° |
| 2026-04-29 22:31 | 28.59666 | -16.01742 | 10065 ft | 257 kts | 254° |
| 2026-04-29 22:31 | 28.59200 | -16.03702 | 10069 ft | 257 kts | 254° |
| 2026-04-29 22:32 | 28.58728 | -16.05688 | 10070 ft | 257 kts | 254° |
| 2026-04-29 22:32 | 28.58257 | -16.07667 | 10072 ft | 257 kts | 254° |
| 2026-04-29 22:32 | 28.57785 | -16.09642 | 10073 ft | 257 kts | 254° |
| 2026-04-29 22:32 | 28.57315 | -16.11618 | 10073 ft | 257 kts | 254° |
| 2026-04-29 22:33 | 28.56845 | -16.13593 | 10073 ft | 257 kts | 254° |
| 2026-04-29 22:33 | 28.56377 | -16.15558 | 10073 ft | 257 kts | 254° |
| 2026-04-29 22:33 | 28.55913 | -16.17500 | 10073 ft | 257 kts | 254° |
| 2026-04-29 22:33 | 28.55441 | -16.19474 | 10073 ft | 257 kts | 254° |
| 2026-04-29 22:34 | 28.54971 | -16.21444 | 10073 ft | 257 kts | 254° |
| 2026-04-29 22:34 | 28.54504 | -16.23395 | 10073 ft | 257 kts | 254° |
| 2026-04-29 22:34 | 28.54033 | -16.25361 | 10073 ft | 257 kts | 254° |
| 2026-04-29 22:34 | 28.53560 | -16.27334 | 10074 ft | 257 kts | 254° |
| 2026-04-29 22:35 | 28.53088 | -16.29310 | 10073 ft | 258 kts | 254° |
| 2026-04-29 22:35 | 28.52616 | -16.31280 | 10072 ft | 257 kts | 254° |
| 2026-04-29 22:35 | 28.52138 | -16.33271 | 10073 ft | 257 kts | 254° |
| 2026-04-29 22:35 | 28.51663 | -16.35242 | 10072 ft | 257 kts | 254° |
| 2026-04-29 22:36 | 28.51234 | -16.37232 | 10068 ft | 258 kts | 261° |
| 2026-04-29 22:36 | 28.51079 | -16.39240 | 10072 ft | 258 kts | 265° |
| 2026-04-29 22:36 | 28.50969 | -16.41291 | 10072 ft | 258 kts | 265° |
| 2026-04-29 22:36 | 28.50864 | -16.43331 | 10072 ft | 258 kts | 266° |
| 2026-04-29 22:37 | 28.50761 | -16.45376 | 10074 ft | 258 kts | 266° |
| 2026-04-29 22:37 | 28.50660 | -16.47404 | 10072 ft | 258 kts | 266° |
| 2026-04-29 22:37 | 28.50558 | -16.49433 | 10072 ft | 258 kts | 266° |
| 2026-04-29 22:37 | 28.50455 | -16.51484 | 10072 ft | 258 kts | 266° |
| 2026-04-29 22:38 | 28.50353 | -16.53518 | 10073 ft | 258 kts | 266° |
| 2026-04-29 22:38 | 28.50250 | -16.55566 | 10072 ft | 258 kts | 266° |
| 2026-04-29 22:38 | 28.50148 | -16.57581 | 10072 ft | 259 kts | 266° |
| 2026-04-29 22:38 | 28.50044 | -16.59636 | 10072 ft | 259 kts | 266° |
| 2026-04-29 22:39 | 28.49940 | -16.61684 | 10072 ft | 259 kts | 266° |
| 2026-04-29 22:39 | 28.49836 | -16.63715 | 10072 ft | 259 kts | 266° |
| 2026-04-29 22:39 | 28.49731 | -16.65768 | 10073 ft | 259 kts | 265° |
| 2026-04-29 22:39 | 28.49627 | -16.67796 | 10075 ft | 259 kts | 266° |
| 2026-04-29 22:40 | 28.49521 | -16.69845 | 10075 ft | 259 kts | 265° |
| 2026-04-29 22:40 | 28.49408 | -16.71901 | 10074 ft | 259 kts | 264° |
| 2026-04-29 22:40 | 28.49249 | -16.73954 | 10074 ft | 259 kts | 264° |
| 2026-04-29 22:40 | 28.49084 | -16.75995 | 10075 ft | 259 kts | 264° |
| 2026-04-29 22:41 | 28.48919 | -16.78026 | 10075 ft | 259 kts | 264° |
| 2026-04-29 22:41 | 28.48750 | -16.80108 | 10075 ft | 259 kts | 264° |
| 2026-04-29 22:41 | 28.48583 | -16.82135 | 10073 ft | 259 kts | 264° |
| 2026-04-29 22:41 | 28.48415 | -16.84163 | 10071 ft | 259 kts | 264° |
| 2026-04-29 22:42 | 28.48245 | -16.86216 | 10069 ft | 259 kts | 264° |
| 2026-04-29 22:42 | 28.48078 | -16.88247 | 10066 ft | 259 kts | 264° |
| 2026-04-29 22:42 | 28.47907 | -16.90302 | 10064 ft | 259 kts | 264° |
| 2026-04-29 22:42 | 28.47739 | -16.92331 | 10061 ft | 259 kts | 264° |
| 2026-04-29 22:43 | 28.47571 | -16.94358 | 10059 ft | 259 kts | 264° |
| 2026-04-29 22:43 | 28.47402 | -16.96404 | 10057 ft | 259 kts | 264° |
| 2026-04-29 22:43 | 28.47233 | -16.98426 | 10055 ft | 259 kts | 264° |
| 2026-04-29 22:43 | 28.47063 | -17.00473 | 10051 ft | 259 kts | 264° |
| 2026-04-29 22:44 | 28.46892 | -17.02518 | 10049 ft | 259 kts | 264° |
| 2026-04-29 22:44 | 28.46722 | -17.04533 | 10048 ft | 259 kts | 264° |
| 2026-04-29 22:44 | 28.46551 | -17.06576 | 10046 ft | 259 kts | 264° |
| 2026-04-29 22:44 | 28.46378 | -17.08623 | 10047 ft | 259 kts | 264° |
| 2026-04-29 22:45 | 28.46206 | -17.10668 | 10045 ft | 259 kts | 264° |
| 2026-04-29 22:45 | 28.46035 | -17.12686 | 10046 ft | 259 kts | 264° |
| 2026-04-29 22:45 | 28.45863 | -17.14724 | 10046 ft | 259 kts | 264° |
| 2026-04-29 22:45 | 28.45690 | -17.16767 | 10046 ft | 259 kts | 264° |
| 2026-04-29 22:46 | 28.45519 | -17.18784 | 10046 ft | 259 kts | 264° |
| 2026-04-29 22:46 | 28.45344 | -17.20826 | 10046 ft | 259 kts | 264° |
| 2026-04-29 22:46 | 28.45170 | -17.22863 | 10046 ft | 259 kts | 264° |
| 2026-04-29 22:46 | 28.44999 | -17.24901 | 10046 ft | 258 kts | 264° |
| 2026-04-29 22:47 | 28.44829 | -17.26920 | 9867 ft | 263 kts | 264° |
| 2026-04-29 22:47 | 28.44655 | -17.28955 | 9108 ft | 254 kts | 264° |
| 2026-04-29 22:47 | 28.44488 | -17.30892 | 8366 ft | 248 kts | 264° |
| 2026-04-29 22:47 | 28.44323 | -17.32818 | 7613 ft | 245 kts | 264° |
| 2026-04-29 22:48 | 28.44160 | -17.34713 | 6864 ft | 242 kts | 264° |
| 2026-04-29 22:48 | 28.43999 | -17.36573 | 6369 ft | 231 kts | 265° |
| 2026-04-29 22:48 | 28.43847 | -17.38347 | 5930 ft | 222 kts | 264° |
| 2026-04-29 22:48 | 28.43699 | -17.40062 | 5473 ft | 218 kts | 264° |
| 2026-04-29 22:49 | 28.43547 | -17.41773 | 4991 ft | 217 kts | 264° |
| 2026-04-29 22:49 | 28.43403 | -17.43461 | 4616 ft | 212 kts | 264° |
| 2026-04-29 22:49 | 28.43276 | -17.45054 | 4541 ft | 193 kts | 266° |
| 2026-04-29 22:49 | 28.43239 | -17.46512 | 4541 ft | 176 kts | 269° |
| 2026-04-29 22:50 | 28.43221 | -17.47851 | 4542 ft | 164 kts | 269° |
| 2026-04-29 22:50 | 28.43205 | -17.49106 | 4542 ft | 153 kts | 268° |
| 2026-04-29 22:50 | 28.43192 | -17.50278 | 4542 ft | 145 kts | 268° |
| 2026-04-29 22:50 | 28.43177 | -17.51407 | 4544 ft | 139 kts | 268° |
| 2026-04-29 22:51 | 28.43163 | -17.52550 | 4361 ft | 147 kts | 268° |
| 2026-04-29 22:51 | 28.43148 | -17.53715 | 4111 ft | 148 kts | 268° |
| 2026-04-29 22:51 | 28.43119 | -17.56060 | 3614 ft | 149 kts | 268° |
| 2026-04-29 22:52 | 28.43104 | -17.57241 | 3368 ft | 150 kts | 268° |
| 2026-04-29 22:52 | 28.43089 | -17.58406 | 3147 ft | 149 kts | 269° |
| 2026-04-29 22:52 | 28.43074 | -17.59554 | 3050 ft | 140 kts | 268° |
| 2026-04-29 22:52 | 28.43061 | -17.60617 | 3042 ft | 129 kts | 268° |
| 2026-04-29 22:53 | 28.43048 | -17.61619 | 2983 ft | 126 kts | 268° |
| 2026-04-29 22:53 | 28.43032 | -17.62646 | 2698 ft | 130 kts | 268° |
| 2026-04-29 22:53 | 28.43020 | -17.63640 | 2555 ft | 120 kts | 269° |
| 2026-04-29 22:53 | 28.43007 | -17.64570 | 2545 ft | 116 kts | 269° |
| 2026-04-29 22:54 | 28.42995 | -17.65492 | 2547 ft | 115 kts | 268° |
| 2026-04-29 22:54 | 28.42984 | -17.66400 | 2547 ft | 115 kts | 268° |
| 2026-04-29 22:54 | 28.42971 | -17.67307 | 2549 ft | 115 kts | 268° |
| 2026-04-29 22:54 | 28.42958 | -17.68223 | 2549 ft | 115 kts | 268° |
| 2026-04-29 22:55 | 28.42945 | -17.69136 | 2548 ft | 115 kts | 268° |
| 2026-04-29 22:55 | 28.42931 | -17.70039 | 2547 ft | 115 kts | 268° |
| 2026-04-29 22:55 | 28.42918 | -17.70958 | 2547 ft | 114 kts | 268° |
| 2026-04-29 22:55 | 28.42904 | -17.71872 | 2548 ft | 115 kts | 268° |
| 2026-04-29 22:56 | 28.42891 | -17.72800 | 2546 ft | 115 kts | 268° |
| 2026-04-29 22:56 | 28.42887 | -17.73709 | 2544 ft | 115 kts | 275° |
| 2026-04-29 22:56 | 28.43284 | -17.74487 | 2544 ft | 117 kts | 318° |
| 2026-04-29 22:56 | 28.44019 | -17.74930 | 2546 ft | 119 kts | 339° |
| 2026-04-29 22:57 | 28.44841 | -17.75128 | 2548 ft | 121 kts | 349° |
| 2026-04-29 22:57 | 28.45680 | -17.75209 | 2548 ft | 121 kts | 354° |
| 2026-04-29 22:57 | 28.46534 | -17.75243 | 2546 ft | 122 kts | 355° |
| 2026-04-29 22:57 | 28.47382 | -17.75266 | 2547 ft | 122 kts | 355° |
| 2026-04-29 22:58 | 28.48231 | -17.75283 | 2547 ft | 122 kts | 355° |
| 2026-04-29 22:58 | 28.49074 | -17.75300 | 2547 ft | 122 kts | 355° |
| 2026-04-29 22:58 | 28.49968 | -17.75320 | 2415 ft | 132 kts | 356° |
| 2026-04-29 22:58 | 28.50901 | -17.75337 | 2250 ft | 138 kts | 356° |
| 2026-04-29 22:59 | 28.51868 | -17.75355 | 2073 ft | 141 kts | 356° |
| 2026-04-29 22:59 | 28.52858 | -17.75374 | 1882 ft | 143 kts | 356° |
| 2026-04-29 22:59 | 28.53853 | -17.75393 | 1689 ft | 144 kts | 356° |
| 2026-04-29 22:59 | 28.54861 | -17.75412 | 1495 ft | 145 kts | 356° |
| 2026-04-29 23:00 | 28.55870 | -17.75431 | 1324 ft | 137 kts | 357° |
| 2026-04-29 23:00 | 28.56818 | -17.75449 | 1135 ft | 137 kts | 357° |
| 2026-04-29 23:00 | 28.57776 | -17.75468 | 934 ft | 137 kts | 357° |
| 2026-04-29 23:00 | 28.58719 | -17.75485 | 745 ft | 137 kts | 357° |
| 2026-04-29 23:01 | 28.59674 | -17.75504 | 558 ft | 136 kts | 357° |
| 2026-04-29 23:01 | 28.60617 | -17.75522 | 375 ft | 137 kts | 357° |
| 2026-04-29 23:01 | 28.61565 | -17.75537 | 176 ft | 137 kts | 358° |
| 2026-04-29 23:01 | 28.62325 | -17.75547 | 119 ft | 83 kts | 358° |
| 2026-04-29 23:02 | 28.62697 | -17.75569 | 96 ft | 9 kts | 359° |
| 2026-04-29 23:02 | 28.62700 | -17.75569 | 96 ft | 0 kts | 360° |